SBCHSBFL

Guest
Details From SBCH - Chapeco
To SBFL - Hercillo Luz
Flight Number -
Tags Decoded
Created
Modified
Stats Distance 222 nm / 411 km
Max Altitude 0 ft / 0 m
Waypoints 2
Social Downloads 4
Likes 0
Share VATSIM

Download

Looking for another format? Having issues loading an existing format? Contact us
Advertisement - Login to hide

Notes

Decoded

Route

SBCH SBFL

ID Type Via Altitude Latitude Longitude Leg Dist Tot Dist Heading (true) Name
O SBCH APT - 0 ft / 0 m -27.13246˚ -52.66891˚ - 0 nm - -
O SBFL APT - 0 ft / 0 m -27.67664˚ -48.55458˚ 221 nm 221 nm 99° / 98° -

Altitude Profile

Advertisement - Login to hide

Weather


0- 5 10 15 20 25 30 35+ Temperature / ° C

Clouds and Precipitation
Forecast for 2018-05-22 12:00 UTC. Updated 2 hours ago

Ground ~20,000 ft ~40,000 ft Winds

SBCH

Details ICAO SBCH (XAP)
Name Chapeco
Region Brazil
Timezone America/Sao_Paulo (UTC-3.0)
Stats Elevation 2,146 ft / 654 m (AMSL)
Location -27.134220° -52.656553°
Runways 1
Magnetic Variation 17.078° W

METAR

SBCH 221000Z 06004KT 8000 1000N BCFG FEW002 06/06 Q1021

Decode

TAF

Not found

Departure Runways

ID Width Length Bearing (true) Bearing (mag) Surface Threshold Offset Overrun Length
11 145 ft / 44 m 8,126 ft / 2,477 m 99.12° 116.20° Asphalt 0 ft / 0 m 1,450 ft / 442 m
29 145 ft / 44 m 8,126 ft / 2,477 m 279.11° 296.19° Asphalt 1,410 ft / 430 m 0 ft / 0 m

SBFL

Details ICAO SBFL (FLN)
Name Hercillo Luz
Region Brazil
Timezone America/Sao_Paulo (UTC-3.0)
Stats Elevation 19 ft / 6 m (AMSL)
Location -27.670487° -48.547180°
Runways 2
Magnetic Variation 19.380° W

METAR

SBFL 221000Z 32002KT CAVOK 13/11 Q1019

Decode

TAF

TAF SBFL 220300Z 2206/2306 28005KT CAVOK TN12/2209Z TX22/2218Z BECMG 2214/2216 18010KT BECMG 2222/2224 9999 SCT030 RMK PDJ

Decode

Destination Runways

ID Width Length Bearing (true) Bearing (mag) Surface Threshold Offset Overrun Length
03 148 ft / 45 m 4,939 ft / 1,505 m 11.55° 30.93° Concrete 0 ft / 0 m 0 ft / 0 m
14 148 ft / 45 m 7,543 ft / 2,299 m 121.30° 140.68° Asphalt 720 ft / 219 m 0 ft / 0 m
21 148 ft / 45 m 4,939 ft / 1,505 m 191.55° 210.93° Concrete 0 ft / 0 m 0 ft / 0 m
32 148 ft / 45 m 7,543 ft / 2,299 m 301.29° 320.67° Asphalt 0 ft / 0 m 200 ft / 61 m

Approach Navaids

Runway Type Ident Frequency Range Bearing (true) Bearing (mag) Slope Elevation
14 Localiser IFL 110.30 MHz 18 nm / 33 km 121.67° 141.05° - 19 ft / 6 m (AMSL)
14 Glidescope IFL 110.30 MHz 10 nm / 19 km 121.29° 140.67° 3.00° 19 ft / 6 m (AMSL)

Popular Alternatives